Search for airport 
image banner adimage banner adimage banner ad
image banner ad

KUKI - Ukiah Muni

Located in Ukiah, United States

ICAO - UKI, IATA -

Data provided by Airmate  

General information

Coordinates: N39°7'33" W123°12'3"
Elevation is 617 feet MSL.
Magnetic variation is 17° East
View others Airports in California

Operational data

Special qualification required
Current time UTC:
Current local time:
Weather
METAR: KUKI 211256Z AUTO 17005KT 10SM CLR 12/10 A2989 RMK AO2 SLP113 T01220100
TAF: KUKI 211143Z 2112/2212 16005KT P6SM SKC FM212000 14015G21KT P6SM SCT250 FM220600 14010KT P6SM SCT015
View NOTAMs / SUP AIP / TFR affecting this airport [VIEW]
Communications frequencies: [VIEW]

Runways:

RWY identifierQFULength (ft)Width (ft)SurfaceLDA (ft)
15168°4423150ASPH
33348°4423150ASPH

Airport contact information

Address: Ukiah United States

Other aviation service providers

Flight schools

Ukiah Aviation

Ukiah Aviation
dhudsons@comcast.net+1(707)463-2655

Satellite view of KUKI